AKT150 CYRT-CYWG
Flight info
| Callsign | AKT150 |
|---|---|
| Flight time | N/A |
| Altitude | 34000 |
| Route | YYQ DCT GOREL KELTO5 |
| Aircraft | B734/M-SDE2E3FHIRW/S |
Departure
| Time | 2026-05-07 19:17 |
|---|---|
| Airport | Rankin Inlet Airport (CYRT) |
Arrival
| Time | N/A |
|---|---|
| Airport | Winnipeg / James Armstrong Richardson International Airport (CYWG) |
| Time | Latitude | Longitude | Altitude | Speed | Heading |
|---|---|---|---|---|---|
| 2026-05-07 18:50 | 62.80957 | -92.10295 | 107 ft | 0 kts | 86° |
| 2026-05-07 19:05 | 62.80957 | -92.10294 | 107 ft | 0 kts | 86° |
| 2026-05-07 19:07 | 62.80952 | -92.10326 | 105 ft | 4 kts | 65° |
| 2026-05-07 19:08 | 62.80944 | -92.10379 | 107 ft | 4 kts | 90° |
| 2026-05-07 19:08 | 62.80952 | -92.10429 | 105 ft | 2 kts | 128° |
| 2026-05-07 19:08 | 62.80956 | -92.10441 | 106 ft | 0 kts | 128° |
| 2026-05-07 19:10 | 62.80956 | -92.10440 | 107 ft | 0 kts | 128° |
| 2026-05-07 19:11 | 62.80955 | -92.10440 | 107 ft | 0 kts | 128° |
| 2026-05-07 19:12 | 62.80953 | -92.10433 | 107 ft | 2 kts | 128° |
| 2026-05-07 19:12 | 62.80944 | -92.10406 | 107 ft | 4 kts | 129° |
| 2026-05-07 19:12 | 62.80922 | -92.10350 | 107 ft | 6 kts | 129° |
| 2026-05-07 19:12 | 62.80896 | -92.10281 | 107 ft | 6 kts | 129° |
| 2026-05-07 19:13 | 62.80869 | -92.10207 | 107 ft | 6 kts | 129° |
| 2026-05-07 19:13 | 62.80840 | -92.10130 | 107 ft | 7 kts | 129° |
| 2026-05-07 19:13 | 62.80811 | -92.10052 | 107 ft | 7 kts | 128° |
| 2026-05-07 19:13 | 62.80781 | -92.09974 | 107 ft | 7 kts | 131° |
| 2026-05-07 19:14 | 62.80754 | -92.09915 | 107 ft | 2 kts | 151° |
| 2026-05-07 19:14 | 62.80738 | -92.09916 | 107 ft | 6 kts | 180° |
| 2026-05-07 19:14 | 62.80683 | -92.09917 | 106 ft | 9 kts | 181° |
| 2026-05-07 19:14 | 62.80632 | -92.09948 | 107 ft | 7 kts | 211° |
| 2026-05-07 19:15 | 62.80599 | -92.10005 | 106 ft | 6 kts | 219° |
| 2026-05-07 19:15 | 62.80574 | -92.10064 | 107 ft | 5 kts | 246° |
| 2026-05-07 19:15 | 62.80578 | -92.10129 | 106 ft | 5 kts | 295° |
| 2026-05-07 19:15 | 62.80601 | -92.10198 | 106 ft | 10 kts | 306° |
| 2026-05-07 19:16 | 62.80756 | -92.10613 | 107 ft | 65 kts | 308° |
| 2026-05-07 19:16 | 62.81172 | -92.11752 | 102 ft | 126 kts | 310° |
| 2026-05-07 19:16 | 62.81837 | -92.13530 | 179 ft | 173 kts | 309° |
| 2026-05-07 19:16 | 62.82576 | -92.15871 | 529 ft | 204 kts | 308° |
| 2026-05-07 19:17 | 62.83294 | -92.18602 | 1588 ft | 202 kts | 303° |
| 2026-05-07 19:17 | 62.83834 | -92.21382 | 2664 ft | 203 kts | 297° |
| 2026-05-07 19:17 | 62.84318 | -92.24538 | 3052 ft | 235 kts | 293° |
| 2026-05-07 19:17 | 62.84770 | -92.28013 | 4098 ft | 232 kts | 283° |
| 2026-05-07 19:18 | 62.84573 | -92.31495 | 5121 ft | 240 kts | 255° |
| 2026-05-07 19:18 | 62.83752 | -92.35081 | 4785 ft | 296 kts | 236° |
| 2026-05-07 19:18 | 62.82131 | -92.38298 | 4919 ft | 323 kts | 208° |
| 2026-05-07 19:18 | 62.80144 | -92.39737 | 6570 ft | 279 kts | 187° |
| 2026-05-07 19:19 | 62.78340 | -92.40237 | 8193 ft | 254 kts | 184° |
| 2026-05-07 19:19 | 62.76498 | -92.40740 | 8264 ft | 289 kts | 185° |
| 2026-05-07 19:19 | 62.74250 | -92.41381 | 6920 ft | 367 kts | 186° |
| 2026-05-07 19:19 | 62.71511 | -92.42099 | 6594 ft | 406 kts | 183° |
| 2026-05-07 19:20 | 62.68848 | -92.42037 | 8791 ft | 355 kts | 169° |
| 2026-05-07 19:20 | 62.66654 | -92.40486 | 10935 ft | 321 kts | 147° |
| 2026-05-07 19:20 | 62.64898 | -92.37457 | 11361 ft | 334 kts | 127° |
| 2026-05-07 19:20 | 62.63669 | -92.32873 | 10633 ft | 375 kts | 105° |
| 2026-05-07 19:21 | 62.63380 | -92.27056 | 10477 ft | 397 kts | 83° |
| 2026-05-07 19:21 | 62.63852 | -92.21396 | 12332 ft | 357 kts | 74° |
| 2026-05-07 19:21 | 62.64361 | -92.16508 | 14881 ft | 311 kts | 77° |
| 2026-05-07 19:21 | 62.64594 | -92.11905 | 16063 ft | 311 kts | 85° |
| 2026-05-07 19:22 | 62.64417 | -92.06917 | 15414 ft | 358 kts | 98° |
| 2026-05-07 19:22 | 62.63556 | -92.01482 | 14210 ft | 405 kts | 115° |
| 2026-05-07 19:22 | 62.61834 | -91.96697 | 13537 ft | 402 kts | 136° |
| 2026-05-07 19:22 | 62.59446 | -91.93638 | 12865 ft | 401 kts | 158° |
| 2026-05-07 19:23 | 62.56665 | -91.92672 | 12056 ft | 414 kts | 180° |